createdAt,value
2018-02-15T00:02:13.056Z,1.00
2018-02-15T00:04:44.812Z,1.00
2018-02-15T00:07:15.292Z,1.10
2018-02-15T00:09:46.352Z,1.10
2018-02-15T00:12:15.966Z,1.10
2018-02-15T00:14:45.606Z,1.00
2018-02-15T00:17:15.050Z,1.00
2018-02-15T00:19:44.591Z,1.10
2018-02-15T00:22:15.712Z,1.00
2018-02-15T00:24:45.148Z,1.10
2018-02-15T00:27:14.838Z,1.10
2018-02-15T00:29:44.363Z,1.10
2018-02-15T00:32:14.001Z,1.10
2018-02-15T00:34:43.540Z,1.00
2018-02-15T00:37:12.973Z,1.10
2018-02-15T00:39:43.964Z,1.00
2018-02-15T00:42:13.431Z,1.10
2018-02-15T00:44:42.932Z,1.00
2018-02-15T00:47:12.393Z,1.00
2018-02-15T00:49:41.845Z,1.10
2018-02-15T00:52:12.134Z,1.00
2018-02-15T00:54:42.153Z,1.00
2018-02-15T00:57:11.870Z,1.00
2018-02-15T00:59:41.785Z,1.00
2018-02-15T01:02:13.127Z,1.00
2018-02-15T01:04:42.835Z,1.00
2018-02-15T01:07:12.955Z,1.00
2018-02-15T01:09:42.664Z,1.00
2018-02-15T01:12:14.015Z,1.00
2018-02-15T01:14:43.720Z,1.00
2018-02-15T01:17:13.430Z,1.00
2018-02-15T01:19:51.829Z,1.00
2018-02-15T01:22:22.975Z,1.00
2018-02-15T01:24:52.799Z,1.00
2018-02-15T01:27:22.509Z,1.00
2018-02-15T01:29:52.426Z,0.90
2018-02-15T01:32:22.338Z,0.90
2018-02-15T01:34:52.252Z,0.90
2018-02-15T01:37:23.600Z,0.90
2018-02-15T01:39:53.315Z,0.90
2018-02-15T01:42:23.223Z,0.90
2018-02-15T01:44:54.572Z,0.90
2018-02-15T01:47:25.922Z,0.90
2018-02-15T01:50:04.079Z,0.90
2018-02-15T01:52:33.946Z,0.90
2018-02-15T01:55:03.650Z,0.90
2018-02-15T01:57:33.564Z,0.90
2018-02-15T02:00:03.478Z,0.90
2018-02-15T02:02:33.188Z,0.90
2018-02-15T02:05:04.535Z,0.90
2018-02-15T02:07:34.245Z,0.90
2018-02-15T02:10:03.923Z,0.90
2018-02-15T02:12:33.664Z,0.90
2018-02-15T02:15:03.375Z,0.90
2018-02-15T02:17:33.291Z,0.90
2018-02-15T02:20:05.699Z,0.80
2018-02-15T02:22:35.370Z,0.80
2018-02-15T02:25:05.080Z,0.80
2018-02-15T02:27:34.788Z,0.80
2018-02-15T02:30:05.320Z,0.90
2018-02-15T02:32:35.029Z,0.90
2018-02-15T02:35:05.965Z,0.80
2018-02-15T02:37:36.088Z,0.80
2018-02-15T02:40:06.208Z,0.90
2018-02-15T02:42:35.913Z,0.80
2018-02-15T02:45:05.623Z,0.80
2018-02-15T02:47:37.382Z,0.80
2018-02-15T02:50:07.091Z,0.80
2018-02-15T02:52:39.001Z,0.80
2018-02-15T02:55:08.967Z,0.80
2018-02-15T02:57:38.679Z,0.80
2018-02-15T03:00:08.595Z,0.80
2018-02-15T03:02:38.308Z,0.80
2018-02-15T03:05:08.215Z,0.80
2018-02-15T03:07:38.277Z,0.80
2018-02-15T03:10:08.249Z,0.80
2018-02-15T03:12:38.080Z,0.80
2018-02-15T03:15:08.487Z,0.80
2018-02-15T03:17:38.198Z,0.80
2018-02-15T03:20:09.544Z,0.80
2018-02-15T03:22:39.459Z,0.80
2018-02-15T03:25:10.399Z,0.80
2018-02-15T03:27:41.544Z,0.80
2018-02-15T03:30:11.250Z,0.80
2018-02-15T03:32:40.961Z,0.80
2018-02-15T03:35:10.875Z,0.80
2018-02-15T03:37:40.792Z,0.80
2018-02-15T03:40:10.500Z,0.80
2018-02-15T03:42:42.263Z,0.80
2018-02-15T03:45:11.965Z,0.80
2018-02-15T03:47:41.675Z,0.80
2018-02-15T03:50:11.386Z,0.80
2018-02-15T03:52:41.096Z,0.80
2018-02-15T03:55:12.454Z,0.80
2018-02-15T03:57:42.978Z,0.80
2018-02-15T04:00:14.325Z,0.80
2018-02-15T04:02:43.972Z,0.70
2018-02-15T04:05:14.352Z,0.80
2018-02-15T04:07:44.471Z,0.70
2018-02-15T04:10:14.184Z,0.70
2018-02-15T04:12:43.895Z,0.80
2018-02-15T04:15:15.238Z,0.70
2018-02-15T04:17:46.382Z,0.70
2018-02-15T04:20:16.501Z,0.70
2018-02-15T04:22:46.416Z,0.70
2018-02-15T04:25:16.125Z,0.70
2018-02-15T04:27:45.834Z,0.70
2018-02-15T04:30:15.545Z,0.70
2018-02-15T04:32:46.892Z,0.70
2018-02-15T04:35:18.084Z,0.70
2018-02-15T04:37:47.745Z,0.70
2018-02-15T04:40:18.068Z,0.70
2018-02-15T04:42:47.778Z,0.70
2018-02-15T04:45:17.500Z,0.70
2018-02-15T04:47:47.402Z,0.70
2018-02-15T04:50:17.116Z,0.70
2018-02-15T04:52:46.764Z,0.70
2018-02-15T04:55:16.531Z,0.70
2018-02-15T04:57:46.240Z,0.70
2018-02-15T05:00:15.953Z,0.70
2018-02-15T05:02:47.412Z,0.70
2018-02-15T05:05:17.977Z,0.70
2018-02-15T05:07:47.741Z,0.60
2018-02-15T05:10:19.293Z,0.70
2018-02-15T05:12:50.645Z,0.70
2018-02-15T05:15:20.351Z,0.70
2018-02-15T05:17:50.266Z,0.70
2018-02-15T05:20:20.133Z,0.70
2018-02-15T05:22:50.096Z,0.70
2018-02-15T05:25:20.010Z,0.70
2018-02-15T05:27:49.987Z,0.70
2018-02-15T05:30:19.841Z,0.70
2018-02-15T05:32:49.548Z,0.70
2018-02-15T05:35:21.292Z,0.70
2018-02-15T05:37:51.219Z,0.70
2018-02-15T05:40:20.929Z,0.70
2018-02-15T05:42:52.076Z,0.70
2018-02-15T05:45:21.782Z,0.60
2018-02-15T05:47:53.092Z,0.70
2018-02-15T05:50:22.839Z,0.60
2018-02-15T05:52:52.549Z,0.70
2018-02-15T05:55:22.258Z,0.70
2018-02-15T05:57:51.969Z,0.70
2018-02-15T06:00:21.677Z,0.70
2018-02-15T06:02:53.642Z,0.70
2018-02-15T06:05:24.170Z,0.70
2018-02-15T06:07:55.487Z,0.60
2018-02-15T06:10:25.229Z,0.70
2018-02-15T06:12:54.941Z,0.60
2018-02-15T06:15:24.854Z,0.60
2018-02-15T06:17:54.772Z,0.60
2018-02-15T06:20:24.715Z,0.60
2018-02-15T06:22:54.392Z,0.60
2018-02-15T06:25:24.313Z,0.60
2018-02-15T06:27:54.016Z,0.60
2018-02-15T06:30:25.368Z,0.60
2018-02-15T06:32:55.075Z,0.60
2018-02-15T06:35:24.783Z,0.70
2018-02-15T06:37:54.492Z,0.60
2018-02-15T06:40:24.204Z,0.60
2018-02-15T06:42:54.115Z,0.60
2018-02-15T06:45:23.828Z,0.60
2018-02-15T06:47:53.740Z,0.70
2018-02-15T06:50:23.860Z,0.60
2018-02-15T06:52:55.207Z,0.60
2018-02-15T06:55:26.555Z,0.60
2018-02-15T06:57:57.904Z,0.60
2018-02-15T07:00:27.613Z,0.60
2018-02-15T07:02:57.527Z,0.60
2018-02-15T07:05:28.092Z,0.60
2018-02-15T07:07:57.976Z,0.60
2018-02-15T07:10:27.679Z,0.60
2018-02-15T07:12:57.593Z,0.60
2018-02-15T07:15:28.328Z,0.60
2018-02-15T07:17:58.857Z,0.60
2018-02-15T07:20:28.565Z,0.70
2018-02-15T07:22:59.913Z,0.60
2018-02-15T07:25:29.790Z,0.60
2018-02-15T07:27:59.512Z,0.70
2018-02-15T07:30:29.247Z,0.60
2018-02-15T07:32:58.956Z,0.70
2018-02-15T07:35:30.305Z,0.70
2018-02-15T07:38:00.016Z,0.60
2018-02-15T07:40:29.734Z,0.70
2018-02-15T07:42:59.640Z,0.70
2018-02-15T07:45:29.348Z,0.70
2018-02-15T07:47:59.466Z,0.70
2018-02-15T07:50:29.997Z,0.70
2018-02-15T07:53:00.090Z,0.70
2018-02-15T07:55:30.028Z,0.70
2018-02-15T07:57:59.921Z,0.70
2018-02-15T08:00:29.654Z,0.70
2018-02-15T08:02:59.533Z,0.70
2018-02-15T08:05:29.280Z,0.70
2018-02-15T08:07:59.805Z,0.70
2018-02-15T08:10:29.516Z,0.70
2018-02-15T08:12:59.228Z,0.70
2018-02-15T08:15:28.895Z,0.70
2018-02-15T08:17:58.848Z,0.70
2018-02-15T08:20:28.765Z,0.80
2018-02-15T08:22:58.474Z,0.80
2018-02-15T08:25:28.184Z,0.80
2018-02-15T08:27:59.122Z,0.80
2018-02-15T08:30:28.830Z,0.80
2018-02-15T08:33:00.149Z,0.80
2018-02-15T08:35:29.896Z,0.80
2018-02-15T08:37:59.802Z,0.80
2018-02-15T08:40:31.150Z,0.80
2018-02-15T08:43:00.860Z,0.80
2018-02-15T08:45:30.569Z,0.80
2018-02-15T08:48:01.058Z,0.80
2018-02-15T08:50:30.808Z,0.80
2018-02-15T08:53:00.677Z,0.80
2018-02-15T08:55:30.432Z,0.80
2018-02-15T08:58:00.346Z,0.80
2018-02-15T09:00:30.670Z,0.90
2018-02-15T09:03:00.379Z,0.90
2018-02-15T09:05:30.293Z,0.90
2018-02-15T09:08:00.209Z,0.90
2018-02-15T09:10:30.942Z,0.90
2018-02-15T09:13:00.654Z,0.90
2018-02-15T09:15:30.361Z,0.90
2018-02-15T09:18:00.073Z,0.90
2018-02-15T09:20:29.985Z,0.90
2018-02-15T09:23:00.722Z,0.90
2018-02-15T09:25:31.248Z,0.90
2018-02-15T09:28:01.375Z,0.90
2018-02-15T09:30:31.077Z,0.90
2018-02-15T09:33:00.786Z,0.90
2018-02-15T09:35:30.700Z,0.90
2018-02-15T09:38:00.613Z,0.90
2018-02-15T09:40:30.681Z,0.90
2018-02-15T09:43:00.647Z,0.90
2018-02-15T09:45:30.573Z,1.00
2018-02-15T09:48:00.272Z,0.90
2018-02-15T09:50:30.282Z,0.90
2018-02-15T09:53:00.107Z,1.00
2018-02-15T09:55:30.017Z,1.00
2018-02-15T09:57:59.930Z,1.00
2018-02-15T10:00:29.843Z,1.00
2018-02-15T10:03:00.372Z,1.00
2018-02-15T10:05:30.289Z,1.00
2018-02-15T10:08:01.634Z,1.00
2018-02-15T10:10:32.331Z,1.00
2018-02-15T10:13:02.287Z,1.00
2018-02-15T10:15:33.078Z,1.00
2018-02-15T10:18:02.933Z,1.00
2018-02-15T10:20:32.640Z,1.00
2018-02-15T10:23:02.557Z,1.00
2018-02-15T10:25:32.266Z,1.00
2018-02-15T10:28:03.001Z,1.00
2018-02-15T10:30:33.322Z,1.00
2018-02-15T10:33:04.971Z,0.90
2018-02-15T10:35:35.001Z,0.90
2018-02-15T10:38:05.080Z,0.90
2018-02-15T10:40:35.027Z,0.90
2018-02-15T10:43:05.053Z,0.80
2018-02-15T10:45:35.879Z,0.80
2018-02-15T10:48:05.795Z,0.80
2018-02-15T10:50:35.718Z,0.80
2018-02-15T10:53:05.693Z,0.80
2018-02-15T10:55:35.946Z,0.80
2018-02-15T10:58:06.073Z,0.80
2018-02-15T11:00:40.085Z,0.80
2018-02-15T11:03:14.088Z,0.80
2018-02-15T11:05:46.460Z,0.80
2018-02-15T11:08:17.397Z,0.80
2018-02-15T11:10:47.314Z,0.80
2018-02-15T11:13:17.192Z,0.80
2018-02-15T11:15:47.252Z,0.80
2018-02-15T11:18:18.299Z,0.80
2018-02-15T11:20:48.579Z,0.80
2018-02-15T11:23:18.521Z,0.80
2018-02-15T11:25:48.642Z,0.80
2018-02-15T11:28:22.476Z,0.80
2018-02-15T11:30:52.568Z,0.80
2018-02-15T11:33:22.893Z,0.80
2018-02-15T11:35:52.603Z,0.80
2018-02-15T11:38:23.926Z,0.80
2018-02-15T11:40:53.737Z,0.80
2018-02-15T11:43:23.727Z,0.90
2018-02-15T11:45:53.486Z,0.80
2018-02-15T11:48:23.367Z,0.80
2018-02-15T11:50:53.110Z,0.80
2018-02-15T11:53:22.820Z,0.80
2018-02-15T11:55:52.529Z,0.80
2018-02-15T11:58:23.264Z,0.80
2018-02-15T12:00:53.177Z,0.80
2018-02-15T12:03:24.525Z,0.80
2018-02-15T12:05:54.238Z,0.80
2018-02-15T12:08:24.109Z,0.80
2018-02-15T12:10:53.859Z,0.90
2018-02-15T12:13:23.850Z,0.90
2018-02-15T12:15:53.687Z,0.90
2018-02-15T12:18:23.601Z,0.90
2018-02-15T12:20:53.311Z,0.90
2018-02-15T12:23:24.658Z,0.80
2018-02-15T12:25:54.573Z,0.80
2018-02-15T12:28:24.491Z,0.90
2018-02-15T12:30:55.221Z,0.80
2018-02-15T12:33:26.077Z,0.80
2018-02-15T12:35:56.895Z,0.90
2018-02-15T12:38:27.012Z,0.80
2018-02-15T12:40:56.722Z,0.90
2018-02-15T12:43:26.438Z,0.90
2018-02-15T12:45:56.142Z,0.90
2018-02-15T12:48:27.489Z,0.90
2018-02-15T12:50:57.403Z,0.80
2018-02-15T12:53:28.823Z,0.80
2018-02-15T12:55:59.052Z,0.80
2018-02-15T12:58:28.991Z,0.90
2018-02-15T13:00:59.723Z,0.90
2018-02-15T13:03:29.638Z,0.80
2018-02-15T13:05:59.556Z,0.90
2018-02-15T13:08:30.285Z,0.80
2018-02-15T13:11:01.429Z,0.90
2018-02-15T13:13:31.753Z,0.90
2018-02-15T13:17:11.300Z,0.90
2018-02-15T13:20:21.158Z,0.90
2018-02-15T13:22:51.064Z,0.80
2018-02-15T13:25:20.773Z,0.90
2018-02-15T13:28:03.181Z,0.90
2018-02-15T13:30:33.301Z,0.90
2018-02-15T13:33:03.215Z,0.90
2018-02-15T13:35:34.563Z,0.90
2018-02-15T13:38:05.913Z,0.90
2018-02-15T13:40:35.625Z,0.80
2018-02-15T13:43:05.494Z,0.80
2018-02-15T13:45:35.448Z,0.90
2018-02-15T13:48:05.366Z,0.90
2018-02-15T13:50:35.278Z,0.80
2018-02-15T13:53:06.626Z,0.80
2018-02-15T13:55:38.149Z,0.80
2018-02-15T13:58:07.892Z,0.80
2018-02-15T14:00:37.600Z,0.90
2018-02-15T14:03:08.945Z,0.80
2018-02-15T14:05:38.859Z,0.90
2018-02-15T14:08:10.207Z,0.90
2018-02-15T14:10:40.123Z,0.80
2018-02-15T14:13:09.833Z,0.90
2018-02-15T14:15:40.570Z,0.90
2018-02-15T14:18:10.454Z,0.90
2018-02-15T14:20:40.770Z,0.90
2018-02-15T14:23:10.514Z,0.90
2018-02-15T14:25:40.428Z,0.80
2018-02-15T14:28:11.972Z,0.80
2018-02-15T14:30:41.689Z,0.80
2018-02-15T14:33:11.670Z,0.80
2018-02-15T14:35:41.518Z,0.80
2018-02-15T14:38:11.431Z,0.80
2018-02-15T14:40:41.520Z,0.80
2018-02-15T14:43:11.261Z,0.80
2018-02-15T14:45:41.336Z,0.80
2018-02-15T14:48:11.264Z,0.90
2018-02-15T14:50:41.003Z,0.90
2018-02-15T14:53:10.919Z,0.90
2018-02-15T14:55:40.835Z,0.90
2018-02-15T14:58:10.746Z,0.90
2018-02-15T15:05:51.931Z,0.90
2018-02-15T15:08:22.006Z,0.90
2018-02-15T15:10:51.993Z,0.90
2018-02-15T15:13:23.463Z,0.90
2018-02-15T15:15:54.251Z,0.90
2018-02-15T15:18:24.156Z,0.90
2018-02-15T15:20:53.902Z,0.90
2018-02-15T15:23:24.039Z,0.90
2018-02-15T15:25:53.747Z,0.90
2018-02-15T15:28:23.647Z,0.90
2018-02-15T15:30:53.559Z,0.90
2018-02-15T15:33:23.475Z,0.90
2018-02-15T15:35:53.184Z,0.90
2018-02-15T15:38:23.020Z,0.90
2018-02-15T15:40:53.631Z,0.90
2018-02-15T15:43:23.542Z,0.90
2018-02-15T15:45:53.462Z,0.90
2018-02-15T15:48:23.536Z,0.90
2018-02-15T15:50:53.286Z,0.90
2018-02-15T15:53:23.206Z,0.90
2018-02-15T15:55:53.121Z,0.90
2018-02-15T15:58:22.990Z,0.90
2018-02-15T16:00:52.942Z,0.90
2018-02-15T16:03:22.656Z,0.90
2018-02-15T16:05:52.568Z,0.90
2018-02-15T16:08:22.648Z,0.90
2018-02-15T16:10:52.599Z,0.90
2018-02-15T16:13:22.520Z,0.90
2018-02-15T16:15:52.508Z,0.90
2018-02-15T16:18:22.343Z,0.90
2018-02-15T16:20:52.666Z,0.90
2018-02-15T16:23:22.554Z,0.90
2018-02-15T16:25:52.290Z,0.90
2018-02-15T16:28:22.821Z,0.90
2018-02-15T16:30:52.936Z,0.90
2018-02-15T16:33:22.863Z,0.90
2018-02-15T16:35:52.561Z,0.90
2018-02-15T16:38:22.307Z,0.90
2018-02-15T16:40:52.185Z,0.90
2018-02-15T16:43:22.313Z,0.90
2018-02-15T16:45:52.218Z,0.90
2018-02-15T16:48:22.952Z,0.90
2018-02-15T16:50:52.871Z,0.90
2018-02-15T16:53:22.580Z,0.90
2018-02-15T16:55:52.448Z,0.90
2018-02-15T16:58:22.201Z,0.90
2018-02-15T17:00:52.181Z,0.90
2018-02-15T17:03:22.233Z,0.90
2018-02-15T17:05:52.066Z,0.90
2018-02-15T17:08:22.881Z,0.90
2018-02-15T17:10:52.799Z,0.90
2018-02-15T17:13:23.528Z,0.90
2018-02-15T17:15:53.446Z,0.90
2018-02-15T17:18:24.999Z,0.90
2018-02-15T17:20:55.535Z,0.90
2018-02-15T17:23:25.645Z,0.90
2018-02-15T17:25:56.158Z,0.90
2018-02-15T17:28:26.130Z,0.90
2018-02-15T17:30:56.207Z,0.90
2018-02-15T17:33:26.291Z,0.90
2018-02-15T17:35:56.042Z,0.90
2018-02-15T17:38:25.951Z,0.90
2018-02-15T17:40:56.655Z,0.90
2018-02-15T17:43:26.395Z,0.90
2018-02-15T17:45:56.568Z,0.90
2018-02-15T17:48:26.509Z,0.90
2018-02-15T17:50:56.545Z,0.90
2018-02-15T17:53:27.697Z,0.90
2018-02-15T17:55:57.810Z,0.90
2018-02-15T17:58:27.693Z,0.90
2018-02-15T18:00:57.601Z,0.90
2018-02-15T18:03:27.346Z,0.90
2018-02-15T18:05:57.405Z,0.90
2018-02-15T18:08:27.381Z,0.90
2018-02-15T18:10:57.091Z,0.90
2018-02-15T18:13:27.006Z,0.90
2018-02-15T18:15:57.113Z,0.90
2018-02-15T18:18:27.014Z,0.90
2018-02-15T18:20:56.951Z,0.90
2018-02-15T18:23:26.842Z,0.90
2018-02-15T18:25:56.987Z,0.90
2018-02-15T18:28:26.969Z,0.90
2018-02-15T18:30:56.991Z,0.90
2018-02-15T18:33:26.898Z,0.90
2018-02-15T18:35:57.056Z,0.90
2018-02-15T18:38:27.388Z,0.90
2018-02-15T18:40:57.352Z,0.90
2018-02-15T18:43:27.214Z,0.90
2018-02-15T18:45:59.159Z,0.90
2018-02-15T18:48:30.516Z,0.90
2018-02-15T18:51:00.636Z,0.90
2018-02-15T18:53:30.760Z,0.90
2018-02-15T18:56:00.465Z,0.90
2018-02-15T18:58:30.512Z,0.90
2018-02-15T19:01:00.683Z,0.90
2018-02-15T19:03:30.821Z,0.90
2018-02-15T19:06:00.736Z,0.90
2018-02-15T19:08:32.679Z,0.90
2018-02-15T19:11:02.737Z,0.90
2018-02-15T19:13:33.357Z,0.90
2018-02-15T19:16:03.270Z,0.90
2018-02-15T19:18:33.996Z,0.90
2018-02-15T19:21:04.089Z,1.00
2018-02-15T19:23:34.205Z,0.90
2018-02-15T19:26:04.351Z,0.90
2018-02-15T19:28:34.674Z,0.90
2018-02-15T19:31:04.977Z,0.90
2018-02-15T19:33:35.733Z,0.90
2018-02-15T19:36:06.882Z,1.00
2018-02-15T19:38:36.800Z,1.00
2018-02-15T19:41:06.774Z,1.00
2018-02-15T19:43:36.618Z,1.00
2018-02-15T19:48:37.181Z,1.00
2018-02-15T19:51:08.413Z,1.00
2018-02-15T19:53:38.325Z,1.00
2018-02-15T19:56:08.362Z,1.00
2018-02-15T19:58:39.539Z,1.00
2018-02-15T20:01:09.695Z,1.00
2018-02-15T20:03:40.370Z,1.00
2018-02-15T20:06:10.557Z,1.00
2018-02-15T20:08:40.495Z,1.00
2018-02-15T20:11:11.210Z,1.00
2018-02-15T20:13:41.441Z,1.00
2018-02-15T20:16:23.820Z,1.00
2018-02-15T20:19:00.995Z,1.00
2018-02-15T20:21:31.556Z,1.00
2018-02-15T20:24:01.668Z,1.00
2018-02-15T20:26:36.087Z,1.00
2018-02-15T20:29:06.212Z,1.00
2018-02-15T20:31:36.333Z,1.00
2018-02-15T20:34:07.068Z,1.00
2018-02-15T20:36:37.793Z,1.00
2018-02-15T20:40:12.424Z,1.10
2018-02-15T20:42:43.167Z,1.10
2018-02-15T20:45:13.132Z,1.00
2018-02-15T20:47:43.369Z,1.10
2018-02-15T20:50:17.409Z,1.10
2018-02-15T20:53:54.496Z,1.10
2018-02-15T20:56:24.616Z,1.10
2018-02-15T20:58:54.543Z,1.10
2018-02-15T21:01:24.650Z,1.20
2018-02-15T21:03:54.562Z,1.20
2018-02-15T21:06:24.683Z,1.20
2018-02-15T21:08:56.243Z,1.50
2018-02-15T21:11:26.156Z,1.50
2018-02-15T21:13:56.064Z,1.60
2018-02-15T21:16:26.327Z,1.80
2018-02-15T21:18:56.096Z,1.90
2018-02-15T21:21:26.021Z,2.00
2018-02-15T21:23:56.336Z,2.20
2018-02-15T21:26:26.660Z,2.20
2018-02-15T21:28:56.583Z,2.30
2018-02-15T21:31:26.381Z,2.40
2018-02-15T21:33:56.405Z,2.40
2018-02-15T21:36:27.957Z,2.50
2018-02-15T21:38:58.793Z,2.50
2018-02-15T21:41:29.429Z,2.50
2018-02-15T21:43:59.431Z,2.50
2018-02-15T21:46:29.693Z,2.60
2018-02-15T21:48:59.986Z,2.60
2018-02-15T21:51:29.899Z,2.60
2018-02-15T21:53:59.943Z,2.60
2018-02-15T21:56:29.938Z,2.60
2018-02-15T21:59:00.666Z,2.60
2018-02-15T22:01:32.229Z,2.60
2018-02-15T22:04:02.140Z,2.70
2018-02-15T22:06:32.203Z,2.70
2018-02-15T22:09:02.178Z,2.70
2018-02-15T22:11:32.083Z,2.80
2018-02-15T22:14:02.036Z,2.80
2018-02-15T22:16:32.629Z,2.70
2018-02-15T22:19:02.865Z,2.70
2018-02-15T22:21:48.231Z,2.70
2018-02-15T22:24:20.880Z,2.70
2018-02-15T22:26:53.271Z,2.70
2018-02-15T22:29:29.293Z,2.70
2018-02-15T22:32:02.056Z,2.70
2018-02-15T22:34:38.520Z,2.70
2018-02-15T22:37:12.304Z,2.70
2018-02-15T22:39:43.074Z,2.70
2018-02-15T22:42:14.278Z,2.70
2018-02-15T22:44:46.037Z,2.70
2018-02-15T22:47:16.140Z,2.70
2018-02-15T22:49:46.677Z,2.70
2018-02-15T22:52:17.197Z,2.60
2018-02-15T22:54:48.283Z,2.60
2018-02-15T22:57:18.257Z,2.60
2018-02-15T22:59:48.128Z,2.60
2018-02-15T23:02:18.902Z,2.70
2018-02-15T23:04:50.044Z,2.60
2018-02-15T23:07:21.394Z,2.60
2018-02-15T23:09:51.108Z,2.60
2018-02-15T23:12:22.654Z,2.60
2018-02-15T23:14:55.443Z,2.60
2018-02-15T23:17:25.759Z,2.60
2018-02-15T23:19:55.830Z,2.50
2018-02-15T23:22:25.796Z,2.50
2018-02-15T23:24:55.529Z,2.50
2018-02-15T23:27:25.213Z,2.50
2018-02-15T23:29:55.128Z,2.50
2018-02-15T23:32:24.837Z,2.50
2018-02-15T23:34:54.548Z,2.50
2018-02-15T23:37:24.548Z,2.50
2018-02-15T23:39:54.376Z,2.50
2018-02-15T23:42:24.084Z,2.50
2018-02-15T23:44:53.793Z,2.50
2018-02-15T23:47:23.877Z,2.50
2018-02-15T23:49:55.879Z,2.50
2018-02-15T23:52:25.790Z,2.50
2018-02-15T23:54:55.500Z,2.50
2018-02-15T23:57:25.620Z,2.50
2018-02-15T23:59:55.330Z,2.50
